sensor_id;sensor_type;location;lat;lon;timestamp;temperature;humidity
26517;DHT22;14190;51.342;6.338;2022-09-13T00:01:07;20.80;99.90
26517;DHT22;14190;51.342;6.338;2022-09-13T00:03:36;20.80;99.90
26517;DHT22;14190;51.342;6.338;2022-09-13T00:06:11;20.80;99.90
26517;DHT22;14190;51.342;6.338;2022-09-13T00:08:40;20.80;99.90
26517;DHT22;14190;51.342;6.338;2022-09-13T00:11:19;20.80;99.90
26517;DHT22;14190;51.342;6.338;2022-09-13T00:13:49;20.80;99.90
26517;DHT22;14190;51.342;6.338;2022-09-13T00:16:18;20.80;99.90
26517;DHT22;14190;51.342;6.338;2022-09-13T00:18:47;20.80;99.90
26517;DHT22;14190;51.342;6.338;2022-09-13T00:21:16;20.70;99.90
26517;DHT22;14190;51.342;6.338;2022-09-13T00:23:46;20.80;99.90
26517;DHT22;14190;51.342;6.338;2022-09-13T00:26:17;20.80;99.90
26517;DHT22;14190;51.342;6.338;2022-09-13T00:28:49;20.80;99.90
26517;DHT22;14190;51.342;6.338;2022-09-13T00:31:18;20.80;99.90
26517;DHT22;14190;51.342;6.338;2022-09-13T00:33:47;20.70;99.90
26517;DHT22;14190;51.342;6.338;2022-09-13T00:36:16;20.70;99.90
26517;DHT22;14190;51.342;6.338;2022-09-13T00:38:45;20.70;99.90
26517;DHT22;14190;51.342;6.338;2022-09-13T00:41:14;20.70;99.90
26517;DHT22;14190;51.342;6.338;2022-09-13T00:43:51;20.70;99.90
26517;DHT22;14190;51.342;6.338;2022-09-13T00:46:25;20.80;99.90
26517;DHT22;14190;51.342;6.338;2022-09-13T00:48:54;20.80;99.90
26517;DHT22;14190;51.342;6.338;2022-09-13T00:51:23;20.70;99.90
26517;DHT22;14190;51.342;6.338;2022-09-13T00:53:53;20.70;99.90
26517;DHT22;14190;51.342;6.338;2022-09-13T00:56:25;20.70;99.90
26517;DHT22;14190;51.342;6.338;2022-09-13T00:58:55;20.70;99.90
26517;DHT22;14190;51.342;6.338;2022-09-13T01:01:27;20.70;99.90
26517;DHT22;14190;51.342;6.338;2022-09-13T01:03:55;20.70;99.90
26517;DHT22;14190;51.342;6.338;2022-09-13T01:06:25;20.60;99.90
26517;DHT22;14190;51.342;6.338;2022-09-13T01:08:56;20.60;99.90
26517;DHT22;14190;51.342;6.338;2022-09-13T01:11:32;20.60;99.90
26517;DHT22;14190;51.342;6.338;2022-09-13T01:13:56;20.60;99.90
26517;DHT22;14190;51.342;6.338;2022-09-13T01:16:25;20.60;99.90
26517;DHT22;14190;51.342;6.338;2022-09-13T01:18:54;20.60;99.90
26517;DHT22;14190;51.342;6.338;2022-09-13T01:24:19;20.60;99.90
26517;DHT22;14190;51.342;6.338;2022-09-13T01:34:53;20.50;99.90
26517;DHT22;14190;51.342;6.338;2022-09-13T01:42:59;20.40;99.90
26517;DHT22;14190;51.342;6.338;2022-09-13T01:45:28;20.40;99.90
26517;DHT22;14190;51.342;6.338;2022-09-13T01:47:57;20.40;99.90
26517;DHT22;14190;51.342;6.338;2022-09-13T01:50:41;20.40;99.90
26517;DHT22;14190;51.342;6.338;2022-09-13T01:55:54;20.40;99.90
26517;DHT22;14190;51.342;6.338;2022-09-13T02:01:10;20.50;99.90
26517;DHT22;14190;51.342;6.338;2022-09-13T02:03:41;20.50;99.90
26517;DHT22;14190;51.342;6.338;2022-09-13T02:06:14;20.40;99.90
26517;DHT22;14190;51.342;6.338;2022-09-13T02:08:42;20.50;99.90
26517;DHT22;14190;51.342;6.338;2022-09-13T02:11:12;20.40;99.90
26517;DHT22;14190;51.342;6.338;2022-09-13T02:13:50;20.50;99.90
26517;DHT22;14190;51.342;6.338;2022-09-13T02:16:20;20.50;99.90
26517;DHT22;14190;51.342;6.338;2022-09-13T02:18:51;20.50;99.90
26517;DHT22;14190;51.342;6.338;2022-09-13T02:21:23;20.50;99.90
26517;DHT22;14190;51.342;6.338;2022-09-13T02:23:57;20.40;99.90
26517;DHT22;14190;51.342;6.338;2022-09-13T02:26:21;20.30;99.90
26517;DHT22;14190;51.342;6.338;2022-09-13T02:28:52;20.40;99.90
26517;DHT22;14190;51.342;6.338;2022-09-13T02:31:28;20.40;99.90
26517;DHT22;14190;51.342;6.338;2022-09-13T02:33:55;20.40;99.90
26517;DHT22;14190;51.342;6.338;2022-09-13T02:36:25;20.40;99.90
26517;DHT22;14190;51.342;6.338;2022-09-13T02:38:58;20.50;99.90
26517;DHT22;14190;51.342;6.338;2022-09-13T02:44:08;20.50;99.90
26517;DHT22;14190;51.342;6.338;2022-09-13T02:46:40;20.50;99.90
26517;DHT22;14190;51.342;6.338;2022-09-13T02:49:27;20.50;99.90
26517;DHT22;14190;51.342;6.338;2022-09-13T02:52:00;20.50;99.90
26517;DHT22;14190;51.342;6.338;2022-09-13T02:54:35;20.50;99.90
26517;DHT22;14190;51.342;6.338;2022-09-13T02:59:46;20.50;99.90
26517;DHT22;14190;51.342;6.338;2022-09-13T03:02:15;20.50;99.90
26517;DHT22;14190;51.342;6.338;2022-09-13T03:04:45;20.40;99.90
26517;DHT22;14190;51.342;6.338;2022-09-13T03:07:16;20.40;99.90
26517;DHT22;14190;51.342;6.338;2022-09-13T03:09:45;20.40;99.90
26517;DHT22;14190;51.342;6.338;2022-09-13T03:12:25;20.30;99.90
26517;DHT22;14190;51.342;6.338;2022-09-13T03:14:54;20.20;99.90
26517;DHT22;14190;51.342;6.338;2022-09-13T03:17:35;20.20;99.90
26517;DHT22;14190;51.342;6.338;2022-09-13T03:25:24;20.20;99.90
26517;DHT22;14190;51.342;6.338;2022-09-13T03:30:22;20.20;99.90
26517;DHT22;14190;51.342;6.338;2022-09-13T03:32:57;20.30;99.90
26517;DHT22;14190;51.342;6.338;2022-09-13T03:35:27;20.30;99.90
26517;DHT22;14190;51.342;6.338;2022-09-13T03:37:56;20.30;99.90
26517;DHT22;14190;51.342;6.338;2022-09-13T03:40:36;20.30;99.90
26517;DHT22;14190;51.342;6.338;2022-09-13T03:43:09;20.30;99.90
26517;DHT22;14190;51.342;6.338;2022-09-13T03:45:40;20.30;99.90
26517;DHT22;14190;51.342;6.338;2022-09-13T03:48:08;20.30;99.90
26517;DHT22;14190;51.342;6.338;2022-09-13T03:50:39;20.30;99.90
26517;DHT22;14190;51.342;6.338;2022-09-13T03:53:11;20.40;99.90
26517;DHT22;14190;51.342;6.338;2022-09-13T03:55:41;20.40;99.90
26517;DHT22;14190;51.342;6.338;2022-09-13T03:58:11;20.40;99.90
26517;DHT22;14190;51.342;6.338;2022-09-13T04:00:40;20.30;99.90
26517;DHT22;14190;51.342;6.338;2022-09-13T04:03:09;20.30;99.90
26517;DHT22;14190;51.342;6.338;2022-09-13T04:05:38;20.30;99.90
26517;DHT22;14190;51.342;6.338;2022-09-13T04:08:06;20.30;99.90
26517;DHT22;14190;51.342;6.338;2022-09-13T04:10:35;20.30;99.90
26517;DHT22;14190;51.342;6.338;2022-09-13T04:13:04;20.30;99.90
26517;DHT22;14190;51.342;6.338;2022-09-13T04:15:33;20.30;99.90
26517;DHT22;14190;51.342;6.338;2022-09-13T04:18:02;20.30;99.90
26517;DHT22;14190;51.342;6.338;2022-09-13T04:20:30;20.30;99.90
26517;DHT22;14190;51.342;6.338;2022-09-13T04:22:59;20.30;99.90
26517;DHT22;14190;51.342;6.338;2022-09-13T04:25:28;20.30;99.90
26517;DHT22;14190;51.342;6.338;2022-09-13T04:27:57;20.30;99.90
26517;DHT22;14190;51.342;6.338;2022-09-13T04:30:28;20.20;99.90
26517;DHT22;14190;51.342;6.338;2022-09-13T04:32:56;20.20;99.90
26517;DHT22;14190;51.342;6.338;2022-09-13T04:35:26;20.20;99.90
26517;DHT22;14190;51.342;6.338;2022-09-13T04:37:55;20.20;99.90
26517;DHT22;14190;51.342;6.338;2022-09-13T04:40:26;20.20;99.90
26517;DHT22;14190;51.342;6.338;2022-09-13T04:42:57;20.10;99.90
26517;DHT22;14190;51.342;6.338;2022-09-13T04:45:26;20.10;99.90
26517;DHT22;14190;51.342;6.338;2022-09-13T04:47:55;20.10;99.90
26517;DHT22;14190;51.342;6.338;2022-09-13T04:50:24;20.20;99.90
26517;DHT22;14190;51.342;6.338;2022-09-13T04:52:53;20.20;99.90
26517;DHT22;14190;51.342;6.338;2022-09-13T04:55:22;20.20;99.90
26517;DHT22;14190;51.342;6.338;2022-09-13T04:57:52;20.10;99.90
26517;DHT22;14190;51.342;6.338;2022-09-13T05:00:23;20.20;99.90
26517;DHT22;14190;51.342;6.338;2022-09-13T05:02:58;20.10;99.90
26517;DHT22;14190;51.342;6.338;2022-09-13T05:05:24;20.10;99.90
26517;DHT22;14190;51.342;6.338;2022-09-13T05:07:52;20.10;99.90
26517;DHT22;14190;51.342;6.338;2022-09-13T05:10:21;20.10;99.90
26517;DHT22;14190;51.342;6.338;2022-09-13T05:12:51;20.10;99.90
26517;DHT22;14190;51.342;6.338;2022-09-13T05:15:20;20.10;99.90
26517;DHT22;14190;51.342;6.338;2022-09-13T05:17:48;20.10;99.90
26517;DHT22;14190;51.342;6.338;2022-09-13T05:20:17;20.10;99.90
26517;DHT22;14190;51.342;6.338;2022-09-13T05:22:46;20.20;99.90
26517;DHT22;14190;51.342;6.338;2022-09-13T05:25:15;20.10;99.90
26517;DHT22;14190;51.342;6.338;2022-09-13T05:27:44;20.20;99.90
26517;DHT22;14190;51.342;6.338;2022-09-13T05:30:13;20.20;99.90
26517;DHT22;14190;51.342;6.338;2022-09-13T05:32:41;20.20;99.90
26517;DHT22;14190;51.342;6.338;2022-09-13T05:35:11;20.20;99.90
26517;DHT22;14190;51.342;6.338;2022-09-13T05:37:40;20.20;99.90
26517;DHT22;14190;51.342;6.338;2022-09-13T05:40:09;20.20;99.90
26517;DHT22;14190;51.342;6.338;2022-09-13T05:42:38;20.20;99.90
26517;DHT22;14190;51.342;6.338;2022-09-13T05:45:07;20.30;99.90
26517;DHT22;14190;51.342;6.338;2022-09-13T05:47:36;20.30;99.90
26517;DHT22;14190;51.342;6.338;2022-09-13T05:50:05;20.30;99.90
26517;DHT22;14190;51.342;6.338;2022-09-13T05:52:34;20.30;99.90
26517;DHT22;14190;51.342;6.338;2022-09-13T05:55:02;20.30;99.90
26517;DHT22;14190;51.342;6.338;2022-09-13T05:57:31;20.30;99.90
26517;DHT22;14190;51.342;6.338;2022-09-13T06:00:00;20.30;99.90
26517;DHT22;14190;51.342;6.338;2022-09-13T06:02:30;20.30;99.90
26517;DHT22;14190;51.342;6.338;2022-09-13T06:04:59;20.40;99.90
26517;DHT22;14190;51.342;6.338;2022-09-13T06:07:28;20.40;99.90
26517;DHT22;14190;51.342;6.338;2022-09-13T06:09:57;20.40;99.90
26517;DHT22;14190;51.342;6.338;2022-09-13T06:12:26;20.50;99.90
26517;DHT22;14190;51.342;6.338;2022-09-13T06:14:55;20.50;99.90
26517;DHT22;14190;51.342;6.338;2022-09-13T06:17:24;20.50;99.90
26517;DHT22;14190;51.342;6.338;2022-09-13T06:19:52;20.50;99.90
26517;DHT22;14190;51.342;6.338;2022-09-13T06:22:21;20.60;99.90
26517;DHT22;14190;51.342;6.338;2022-09-13T06:24:50;20.60;99.90
26517;DHT22;14190;51.342;6.338;2022-09-13T06:27:19;20.60;99.90
26517;DHT22;14190;51.342;6.338;2022-09-13T06:29:47;20.70;99.90
26517;DHT22;14190;51.342;6.338;2022-09-13T06:32:16;20.70;99.90
26517;DHT22;14190;51.342;6.338;2022-09-13T06:34:45;20.80;99.90
26517;DHT22;14190;51.342;6.338;2022-09-13T06:37:15;20.80;99.90
26517;DHT22;14190;51.342;6.338;2022-09-13T06:39:43;20.80;99.90
26517;DHT22;14190;51.342;6.338;2022-09-13T06:42:12;20.80;99.90
26517;DHT22;14190;51.342;6.338;2022-09-13T06:44:41;20.80;99.90
26517;DHT22;14190;51.342;6.338;2022-09-13T06:47:10;20.80;99.90
26517;DHT22;14190;51.342;6.338;2022-09-13T06:49:40;20.90;99.90
26517;DHT22;14190;51.342;6.338;2022-09-13T06:52:09;20.90;99.90
26517;DHT22;14190;51.342;6.338;2022-09-13T06:54:37;20.90;99.90
26517;DHT22;14190;51.342;6.338;2022-09-13T06:57:06;20.90;99.90
26517;DHT22;14190;51.342;6.338;2022-09-13T06:59:35;20.90;99.90
26517;DHT22;14190;51.342;6.338;2022-09-13T07:02:04;20.90;99.90
26517;DHT22;14190;51.342;6.338;2022-09-13T07:04:32;21.00;99.90
26517;DHT22;14190;51.342;6.338;2022-09-13T07:07:01;21.10;99.90
26517;DHT22;14190;51.342;6.338;2022-09-13T07:09:32;21.10;99.90
26517;DHT22;14190;51.342;6.338;2022-09-13T07:12:03;21.20;99.90
26517;DHT22;14190;51.342;6.338;2022-09-13T07:14:31;21.20;99.90
26517;DHT22;14190;51.342;6.338;2022-09-13T07:17:00;21.20;99.90
26517;DHT22;14190;51.342;6.338;2022-09-13T07:19:29;21.20;99.90
26517;DHT22;14190;51.342;6.338;2022-09-13T07:21:58;21.20;99.90
26517;DHT22;14190;51.342;6.338;2022-09-13T07:24:32;21.20;99.90
26517;DHT22;14190;51.342;6.338;2022-09-13T07:27:00;21.20;99.90
26517;DHT22;14190;51.342;6.338;2022-09-13T07:29:29;21.30;99.90
26517;DHT22;14190;51.342;6.338;2022-09-13T07:31:57;21.30;99.90
26517;DHT22;14190;51.342;6.338;2022-09-13T07:34:29;21.30;99.90
26517;DHT22;14190;51.342;6.338;2022-09-13T07:36:58;21.40;99.90
26517;DHT22;14190;51.342;6.338;2022-09-13T07:39:27;21.50;99.90
26517;DHT22;14190;51.342;6.338;2022-09-13T07:41:55;21.60;99.90
26517;DHT22;14190;51.342;6.338;2022-09-13T07:44:24;21.60;99.90
26517;DHT22;14190;51.342;6.338;2022-09-13T07:46:55;21.70;99.90
26517;DHT22;14190;51.342;6.338;2022-09-13T07:49:24;21.70;99.90
26517;DHT22;14190;51.342;6.338;2022-09-13T07:51:53;21.70;99.90
26517;DHT22;14190;51.342;6.338;2022-09-13T07:54:21;21.70;99.90
26517;DHT22;14190;51.342;6.338;2022-09-13T07:56:50;21.80;99.90
26517;DHT22;14190;51.342;6.338;2022-09-13T07:59:19;21.80;99.90
26517;DHT22;14190;51.342;6.338;2022-09-13T08:01:48;21.90;99.90
26517;DHT22;14190;51.342;6.338;2022-09-13T08:04:18;22.10;99.90
26517;DHT22;14190;51.342;6.338;2022-09-13T08:06:48;22.20;99.90
26517;DHT22;14190;51.342;6.338;2022-09-13T08:09:17;22.30;99.90
26517;DHT22;14190;51.342;6.338;2022-09-13T08:11:47;22.40;99.90
26517;DHT22;14190;51.342;6.338;2022-09-13T08:14:22;22.50;99.90
26517;DHT22;14190;51.342;6.338;2022-09-13T08:16:47;22.70;99.90
26517;DHT22;14190;51.342;6.338;2022-09-13T08:19:16;22.90;99.90
26517;DHT22;14190;51.342;6.338;2022-09-13T08:21:45;23.00;99.90
26517;DHT22;14190;51.342;6.338;2022-09-13T08:24:17;23.20;99.90
26517;DHT22;14190;51.342;6.338;2022-09-13T08:26:48;23.20;99.90
26517;DHT22;14190;51.342;6.338;2022-09-13T08:29:18;23.30;99.90
26517;DHT22;14190;51.342;6.338;2022-09-13T08:31:47;23.30;99.90
26517;DHT22;14190;51.342;6.338;2022-09-13T08:34:15;23.30;99.90
26517;DHT22;14190;51.342;6.338;2022-09-13T08:36:46;23.40;99.90
26517;DHT22;14190;51.342;6.338;2022-09-13T08:39:15;23.60;99.90
26517;DHT22;14190;51.342;6.338;2022-09-13T08:42:05;23.70;99.90
26517;DHT22;14190;51.342;6.338;2022-09-13T08:44:37;23.80;99.90
26517;DHT22;14190;51.342;6.338;2022-09-13T08:47:10;23.90;99.90
26517;DHT22;14190;51.342;6.338;2022-09-13T08:49:41;24.00;99.90
26517;DHT22;14190;51.342;6.338;2022-09-13T08:54:36;24.30;99.90
26517;DHT22;14190;51.342;6.338;2022-09-13T08:57:15;24.50;99.90
26517;DHT22;14190;51.342;6.338;2022-09-13T09:05:34;24.90;99.90
26517;DHT22;14190;51.342;6.338;2022-09-13T09:08:02;24.90;99.90
26517;DHT22;14190;51.342;6.338;2022-09-13T09:10:32;25.00;99.90
26517;DHT22;14190;51.342;6.338;2022-09-13T09:13:03;25.20;99.90
26517;DHT22;14190;51.342;6.338;2022-09-13T09:15:35;25.30;99.90
26517;DHT22;14190;51.342;6.338;2022-09-13T09:20:47;25.30;99.90
26517;DHT22;14190;51.342;6.338;2022-09-13T09:23:18;25.40;99.90
26517;DHT22;14190;51.342;6.338;2022-09-13T09:25:49;25.50;99.90
26517;DHT22;14190;51.342;6.338;2022-09-13T09:28:17;25.60;99.90
26517;DHT22;14190;51.342;6.338;2022-09-13T09:33:38;25.90;99.90
26517;DHT22;14190;51.342;6.338;2022-09-13T09:36:48;26.10;99.90
26517;DHT22;14190;51.342;6.338;2022-09-13T09:38:39;26.10;99.90
26517;DHT22;14190;51.342;6.338;2022-09-13T09:41:13;26.20;99.90
26517;DHT22;14190;51.342;6.338;2022-09-13T09:43:45;26.10;99.90
26517;DHT22;14190;51.342;6.338;2022-09-13T09:46:11;26.00;99.90
26517;DHT22;14190;51.342;6.338;2022-09-13T09:48:44;26.00;99.90
26517;DHT22;14190;51.342;6.338;2022-09-13T09:51:12;26.10;99.90
26517;DHT22;14190;51.342;6.338;2022-09-13T09:53:46;26.20;99.90
26517;DHT22;14190;51.342;6.338;2022-09-13T09:56:26;26.30;99.90
26517;DHT22;14190;51.342;6.338;2022-09-13T09:58:55;26.40;99.90
26517;DHT22;14190;51.342;6.338;2022-09-13T10:01:24;26.50;99.90
26517;DHT22;14190;51.342;6.338;2022-09-13T10:03:57;26.70;99.90
26517;DHT22;14190;51.342;6.338;2022-09-13T10:06:24;26.90;99.90
26517;DHT22;14190;51.342;6.338;2022-09-13T10:09:01;27.00;99.90
26517;DHT22;14190;51.342;6.338;2022-09-13T10:11:37;27.00;99.90
26517;DHT22;14190;51.342;6.338;2022-09-13T10:14:08;27.00;99.90
26517;DHT22;14190;51.342;6.338;2022-09-13T10:16:37;27.10;99.90
26517;DHT22;14190;51.342;6.338;2022-09-13T10:19:22;27.40;99.90
26517;DHT22;14190;51.342;6.338;2022-09-13T10:21:37;27.60;99.90
26517;DHT22;14190;51.342;6.338;2022-09-13T10:24:15;27.70;99.90
26517;DHT22;14190;51.342;6.338;2022-09-13T10:26:45;27.70;99.90
26517;DHT22;14190;51.342;6.338;2022-09-13T10:29:14;27.80;99.90
26517;DHT22;14190;51.342;6.338;2022-09-13T10:31:44;27.70;99.90
26517;DHT22;14190;51.342;6.338;2022-09-13T10:34:17;27.70;99.90
26517;DHT22;14190;51.342;6.338;2022-09-13T10:39:22;27.90;99.90
26517;DHT22;14190;51.342;6.338;2022-09-13T10:41:55;27.80;99.90
26517;DHT22;14190;51.342;6.338;2022-09-13T10:44:25;27.70;99.90
26517;DHT22;14190;51.342;6.338;2022-09-13T10:46:54;27.70;99.90
26517;DHT22;14190;51.342;6.338;2022-09-13T10:52:28;27.60;99.90
26517;DHT22;14190;51.342;6.338;2022-09-13T10:54:40;27.50;99.90
26517;DHT22;14190;51.342;6.338;2022-09-13T10:57:30;27.40;99.90
26517;DHT22;14190;51.342;6.338;2022-09-13T10:59:55;27.30;99.90
26517;DHT22;14190;51.342;6.338;2022-09-13T11:02:39;27.40;99.90
26517;DHT22;14190;51.342;6.338;2022-09-13T11:05:08;27.40;99.90
26517;DHT22;14190;51.342;6.338;2022-09-13T11:07:39;27.30;99.90
26517;DHT22;14190;51.342;6.338;2022-09-13T11:10:19;27.10;99.90
26517;DHT22;14190;51.342;6.338;2022-09-13T11:18:25;27.20;99.90
26517;DHT22;14190;51.342;6.338;2022-09-13T11:27:08;27.10;99.90
26517;DHT22;14190;51.342;6.338;2022-09-13T11:39:31;27.00;99.90
26517;DHT22;14190;51.342;6.338;2022-09-13T11:47:14;27.10;99.90
26517;DHT22;14190;51.342;6.338;2022-09-13T11:54:51;27.60;99.90
26517;DHT22;14190;51.342;6.338;2022-09-13T11:57:29;27.70;99.90
26517;DHT22;14190;51.342;6.338;2022-09-13T12:00:00;27.80;99.90
26517;DHT22;14190;51.342;6.338;2022-09-13T12:02:30;27.90;99.90
26517;DHT22;14190;51.342;6.338;2022-09-13T12:05:05;27.90;99.90
26517;DHT22;14190;51.342;6.338;2022-09-13T12:07:37;28.00;99.90
26517;DHT22;14190;51.342;6.338;2022-09-13T12:10:17;28.00;99.90
26517;DHT22;14190;51.342;6.338;2022-09-13T12:12:37;27.90;99.90
26517;DHT22;14190;51.342;6.338;2022-09-13T12:17:55;28.00;99.90
26517;DHT22;14190;51.342;6.338;2022-09-13T12:20:29;27.90;99.90
26517;DHT22;14190;51.342;6.338;2022-09-13T12:22:57;28.00;99.90
26517;DHT22;14190;51.342;6.338;2022-09-13T12:25:33;28.00;99.90
26517;DHT22;14190;51.342;6.338;2022-09-13T12:28:18;28.00;99.90
26517;DHT22;14190;51.342;6.338;2022-09-13T12:30:53;28.00;99.90
26517;DHT22;14190;51.342;6.338;2022-09-13T12:33:18;28.00;99.90
26517;DHT22;14190;51.342;6.338;2022-09-13T12:35:52;28.20;99.90
26517;DHT22;14190;51.342;6.338;2022-09-13T12:38:30;28.30;99.90
26517;DHT22;14190;51.342;6.338;2022-09-13T12:43:53;28.10;99.90
26517;DHT22;14190;51.342;6.338;2022-09-13T12:46:25;28.20;99.90
26517;DHT22;14190;51.342;6.338;2022-09-13T12:54:24;27.90;99.90
26517;DHT22;14190;51.342;6.338;2022-09-13T12:56:57;28.00;99.90
26517;DHT22;14190;51.342;6.338;2022-09-13T12:59:27;28.10;99.90
26517;DHT22;14190;51.342;6.338;2022-09-13T13:01:54;28.30;99.90
26517;DHT22;14190;51.342;6.338;2022-09-13T13:04:28;28.30;99.90
26517;DHT22;14190;51.342;6.338;2022-09-13T13:06:58;28.30;99.90
26517;DHT22;14190;51.342;6.338;2022-09-13T13:09:39;28.10;99.90
26517;DHT22;14190;51.342;6.338;2022-09-13T13:12:51;28.00;99.90
26517;DHT22;14190;51.342;6.338;2022-09-13T13:14:44;28.00;99.90
26517;DHT22;14190;51.342;6.338;2022-09-13T13:20:00;28.10;99.90
26517;DHT22;14190;51.342;6.338;2022-09-13T13:25:31;28.10;99.90
26517;DHT22;14190;51.342;6.338;2022-09-13T13:28:02;28.20;99.90
26517;DHT22;14190;51.342;6.338;2022-09-13T13:30:38;28.20;99.90
26517;DHT22;14190;51.342;6.338;2022-09-13T13:33:23;28.20;99.90
26517;DHT22;14190;51.342;6.338;2022-09-13T13:35:55;28.20;99.90
26517;DHT22;14190;51.342;6.338;2022-09-13T13:41:06;28.10;99.90
26517;DHT22;14190;51.342;6.338;2022-09-13T13:43:35;28.00;99.90
26517;DHT22;14190;51.342;6.338;2022-09-13T13:48:40;28.00;99.90
26517;DHT22;14190;51.342;6.338;2022-09-13T13:53:44;28.00;99.90
26517;DHT22;14190;51.342;6.338;2022-09-13T13:56:21;27.90;99.90
26517;DHT22;14190;51.342;6.338;2022-09-13T14:01:24;27.80;99.90
26517;DHT22;14190;51.342;6.338;2022-09-13T14:03:49;27.80;99.90
26517;DHT22;14190;51.342;6.338;2022-09-13T14:06:30;27.80;99.90
26517;DHT22;14190;51.342;6.338;2022-09-13T14:09:11;27.80;99.90
26517;DHT22;14190;51.342;6.338;2022-09-13T14:11:56;27.80;99.90
26517;DHT22;14190;51.342;6.338;2022-09-13T14:17:13;27.70;99.90
26517;DHT22;14190;51.342;6.338;2022-09-13T14:19:43;27.60;99.90
26517;DHT22;14190;51.342;6.338;2022-09-13T14:24:50;27.60;99.90
26517;DHT22;14190;51.342;6.338;2022-09-13T14:27:25;27.50;99.90
26517;DHT22;14190;51.342;6.338;2022-09-13T14:29:53;27.50;99.90
26517;DHT22;14190;51.342;6.338;2022-09-13T14:32:24;27.60;99.90
26517;DHT22;14190;51.342;6.338;2022-09-13T14:34:57;27.60;99.90
26517;DHT22;14190;51.342;6.338;2022-09-13T14:37:25;27.70;99.90
26517;DHT22;14190;51.342;6.338;2022-09-13T14:39:58;27.70;99.90
26517;DHT22;14190;51.342;6.338;2022-09-13T14:42:36;27.60;99.90
26517;DHT22;14190;51.342;6.338;2022-09-13T14:44:57;27.60;99.90
26517;DHT22;14190;51.342;6.338;2022-09-13T14:47:27;27.60;99.90
26517;DHT22;14190;51.342;6.338;2022-09-13T14:50:04;27.70;99.90
26517;DHT22;14190;51.342;6.338;2022-09-13T14:52:37;27.60;99.90
26517;DHT22;14190;51.342;6.338;2022-09-13T14:55:07;27.60;99.90
26517;DHT22;14190;51.342;6.338;2022-09-13T14:57:37;27.50;99.90
26517;DHT22;14190;51.342;6.338;2022-09-13T15:00:16;27.40;99.90
26517;DHT22;14190;51.342;6.338;2022-09-13T15:02:52;27.50;99.90
26517;DHT22;14190;51.342;6.338;2022-09-13T15:05:17;27.50;99.90
26517;DHT22;14190;51.342;6.338;2022-09-13T15:07:46;27.40;99.90
26517;DHT22;14190;51.342;6.338;2022-09-13T15:13:01;27.30;99.90
26517;DHT22;14190;51.342;6.338;2022-09-13T15:15:26;27.30;99.90
26517;DHT22;14190;51.342;6.338;2022-09-13T15:17:58;27.20;99.90
26517;DHT22;14190;51.342;6.338;2022-09-13T15:20:29;27.20;99.90
26517;DHT22;14190;51.342;6.338;2022-09-13T15:22:58;27.10;99.90
26517;DHT22;14190;51.342;6.338;2022-09-13T15:25:27;27.00;99.90
26517;DHT22;14190;51.342;6.338;2022-09-13T15:27:56;27.00;99.90
26517;DHT22;14190;51.342;6.338;2022-09-13T15:30:30;26.90;99.90
26517;DHT22;14190;51.342;6.338;2022-09-13T15:33:33;26.90;99.90
26517;DHT22;14190;51.342;6.338;2022-09-13T15:35:41;26.80;99.90
26517;DHT22;14190;51.342;6.338;2022-09-13T15:40:56;26.90;99.90
26517;DHT22;14190;51.342;6.338;2022-09-13T15:43:17;26.90;99.90
26517;DHT22;14190;51.342;6.338;2022-09-13T15:45:46;26.80;99.90
26517;DHT22;14190;51.342;6.338;2022-09-13T15:48:32;26.80;99.90
26517;DHT22;14190;51.342;6.338;2022-09-13T15:51:04;26.80;99.90
26517;DHT22;14190;51.342;6.338;2022-09-13T15:53:34;26.80;99.90
26517;DHT22;14190;51.342;6.338;2022-09-13T15:56:03;26.80;99.90
26517;DHT22;14190;51.342;6.338;2022-09-13T15:58:33;26.80;99.90
26517;DHT22;14190;51.342;6.338;2022-09-13T16:01:02;26.90;99.90
26517;DHT22;14190;51.342;6.338;2022-09-13T16:03:31;26.80;99.90
26517;DHT22;14190;51.342;6.338;2022-09-13T16:06:01;26.90;99.90
26517;DHT22;14190;51.342;6.338;2022-09-13T16:08:29;26.90;99.90
26517;DHT22;14190;51.342;6.338;2022-09-13T16:10:58;26.90;99.90
26517;DHT22;14190;51.342;6.338;2022-09-13T16:13:27;26.90;99.90
26517;DHT22;14190;51.342;6.338;2022-09-13T16:15:55;26.90;99.90
26517;DHT22;14190;51.342;6.338;2022-09-13T16:18:24;26.90;99.90
26517;DHT22;14190;51.342;6.338;2022-09-13T16:20:53;26.90;99.90
26517;DHT22;14190;51.342;6.338;2022-09-13T16:23:22;26.90;99.90
26517;DHT22;14190;51.342;6.338;2022-09-13T16:25:54;26.90;99.90
26517;DHT22;14190;51.342;6.338;2022-09-13T16:28:21;26.80;99.90
26517;DHT22;14190;51.342;6.338;2022-09-13T16:30:50;26.80;99.90
26517;DHT22;14190;51.342;6.338;2022-09-13T16:33:19;26.80;99.90
26517;DHT22;14190;51.342;6.338;2022-09-13T16:35:48;26.70;99.90
26517;DHT22;14190;51.342;6.338;2022-09-13T16:38:16;26.80;99.90
26517;DHT22;14190;51.342;6.338;2022-09-13T16:40:45;26.80;99.90
26517;DHT22;14190;51.342;6.338;2022-09-13T16:43:14;26.80;99.90
26517;DHT22;14190;51.342;6.338;2022-09-13T16:45:43;26.70;99.90
26517;DHT22;14190;51.342;6.338;2022-09-13T16:48:12;26.70;99.90
26517;DHT22;14190;51.342;6.338;2022-09-13T16:50:40;26.70;99.90
26517;DHT22;14190;51.342;6.338;2022-09-13T16:53:09;26.70;99.90
26517;DHT22;14190;51.342;6.338;2022-09-13T16:55:38;26.60;99.90
26517;DHT22;14190;51.342;6.338;2022-09-13T16:58:06;26.60;99.90
26517;DHT22;14190;51.342;6.338;2022-09-13T17:00:35;26.60;99.90
26517;DHT22;14190;51.342;6.338;2022-09-13T17:03:04;26.50;99.90
26517;DHT22;14190;51.342;6.338;2022-09-13T17:05:32;26.50;99.90
26517;DHT22;14190;51.342;6.338;2022-09-13T17:08:01;26.30;99.90
26517;DHT22;14190;51.342;6.338;2022-09-13T17:10:30;26.30;99.90
26517;DHT22;14190;51.342;6.338;2022-09-13T17:12:58;26.20;99.90
26517;DHT22;14190;51.342;6.338;2022-09-13T17:15:27;26.20;99.90
26517;DHT22;14190;51.342;6.338;2022-09-13T17:17:56;26.20;99.90
26517;DHT22;14190;51.342;6.338;2022-09-13T17:20:25;26.20;99.90
26517;DHT22;14190;51.342;6.338;2022-09-13T17:22:53;26.10;99.90
26517;DHT22;14190;51.342;6.338;2022-09-13T17:25:22;26.10;99.90
26517;DHT22;14190;51.342;6.338;2022-09-13T17:27:52;26.20;99.90
26517;DHT22;14190;51.342;6.338;2022-09-13T17:30:20;26.20;99.90
26517;DHT22;14190;51.342;6.338;2022-09-13T17:32:49;26.20;99.90
26517;DHT22;14190;51.342;6.338;2022-09-13T17:35:18;26.10;99.90
26517;DHT22;14190;51.342;6.338;2022-09-13T17:37:48;26.10;99.90
26517;DHT22;14190;51.342;6.338;2022-09-13T17:40:17;26.10;99.90
26517;DHT22;14190;51.342;6.338;2022-09-13T17:42:45;26.10;99.90
26517;DHT22;14190;51.342;6.338;2022-09-13T17:45:15;26.10;99.90
26517;DHT22;14190;51.342;6.338;2022-09-13T17:47:44;26.00;99.90
26517;DHT22;14190;51.342;6.338;2022-09-13T17:50:13;26.00;99.90
26517;DHT22;14190;51.342;6.338;2022-09-13T17:52:42;26.00;99.90
26517;DHT22;14190;51.342;6.338;2022-09-13T17:55:10;25.90;99.90